Time;durP1;ratioP1;P1;durP2;ratioP2;P2;SDS_P1;SDS_P2;PMS_P1;PMS_P2;Temp;Humidity;BMP_temperature;BMP_pressure;BME280_temperature;BME280_humidity;BME280_pressure;Samples;Min_cycle;Max_cycle;Signal;HPM_P1;HPM_P2
2022/08/14 00:01:33;;;;;;;7.88;6.28;;;;;;;;;;5074521;28;20083;-76
2022/08/14 00:03:58;;;;;;;9.63;6.68;;;;;;;;;;5074737;28;20059;-76
2022/08/14 00:06:24;;;;;;;9.60;6.70;;;;;;;;;;5075019;28;20031;-77
2022/08/14 00:08:49;;;;;;;9.37;6.67;;;;;;;;;;5074522;28;20158;-76
2022/08/14 00:11:17;;;;;;;8.73;6.55;;;;;;;;;;5074546;28;20254;-76
2022/08/14 00:13:43;;;;;;;11.57;7.03;;;;;;;;;;5073776;28;20111;-76
2022/08/14 00:16:12;;;;;;;8.38;6.97;;;;;;;;;;5073448;28;20119;-76
2022/08/14 00:18:38;;;;;;;8.07;6.43;;;;;;;;;;5073445;28;20035;-76
2022/08/14 00:21:03;;;;;;;11.37;6.53;;;;;;;;;;5073562;28;20020;-76
2022/08/14 00:23:29;;;;;;;8.70;6.78;;;;;;;;;;5073240;28;20261;-76
2022/08/14 00:25:56;;;;;;;7.63;6.70;;;;;;;;;;5073223;28;20024;-76
2022/08/14 00:28:25;;;;;;;9.25;6.90;;;;;;;;;;5073540;28;20482;-76
2022/08/14 00:30:52;;;;;;;9.60;7.15;;;;;;;;;;5073800;28;20048;-78
2022/08/14 00:33:17;;;;;;;10.73;7.25;;;;;;;;;;5069329;28;20055;-76
2022/08/14 00:35:44;;;;;;;7.83;6.87;;;;;;;;;;5069583;28;20456;-77
2022/08/14 00:38:09;;;;;;;9.27;6.88;;;;;;;;;;5069020;28;20761;-78
2022/08/14 00:40:35;;;;;;;10.25;7.15;;;;;;;;;;5069307;28;20033;-77
2022/08/14 00:43:00;;;;;;;8.95;6.90;;;;;;;;;;5069713;28;20116;-77
2022/08/14 00:45:26;;;;;;;10.80;7.38;;;;;;;;;;5069390;28;20485;-77
2022/08/14 00:47:51;;;;;;;9.75;7.38;;;;;;;;;;5055190;28;20025;-77
2022/08/14 00:50:19;;;;;;;9.50;7.00;;;;;;;;;;5073206;28;20138;-76
2022/08/14 00:52:46;;;;;;;9.80;7.10;;;;;;;;;;5073597;28;20028;-77
2022/08/14 00:55:12;;;;;;;8.20;7.18;;;;;;;;;;5073323;28;20107;-77
2022/08/14 00:57:38;;;;;;;8.02;7.22;;;;;;;;;;5073069;28;20062;-76
2022/08/14 01:00:13;;;;;;;10.52;7.20;;;;;;;;;;5073883;28;20028;-78
2022/08/14 01:02:40;;;;;;;9.77;7.30;;;;;;;;;;5073113;28;20044;-77
2022/08/14 01:05:06;;;;;;;10.73;7.50;;;;;;;;;;5075910;28;20047;-76
2022/08/14 01:07:32;;;;;;;8.68;7.57;;;;;;;;;;5076726;28;20477;-78
2022/08/14 01:10:00;;;;;;;11.18;7.53;;;;;;;;;;5076675;28;20099;-77
2022/08/14 01:12:27;;;;;;;10.15;7.63;;;;;;;;;;5076348;28;20052;-77
2022/08/14 01:14:54;;;;;;;11.98;7.50;;;;;;;;;;5076466;28;20104;-77
2022/08/14 01:17:20;;;;;;;8.50;7.38;;;;;;;;;;5076602;28;20024;-77
2022/08/14 01:22:29;;;;;;;;;;;;;;;;;;5076881;28;20036;-77
2022/08/14 01:24:56;;;;;;;9.70;6.80;;;;;;;;;;5076410;28;19908;-77
2022/08/14 01:27:23;;;;;;;8.43;7.43;;;;;;;;;;5076517;28;20066;-77
2022/08/14 01:29:51;;;;;;;10.15;7.30;;;;;;;;;;5076612;28;20090;-77
2022/08/14 01:32:17;;;;;;;10.23;7.70;;;;;;;;;;5076210;28;20500;-77
2022/08/14 01:34:46;;;;;;;11.45;7.97;;;;;;;;;;5076102;28;20032;-77
2022/08/14 01:37:11;;;;;;;10.52;7.20;;;;;;;;;;5075864;28;20107;-77
2022/08/14 01:39:37;;;;;;;7.97;6.83;;;;;;;;;;5075990;28;20178;-77
2022/08/14 01:42:04;;;;;;;8.23;7.05;;;;;;;;;;5058579;28;20315;-77
2022/08/14 01:44:30;;;;;;;9.77;7.10;;;;;;;;;;5075800;28;20020;-77
2022/08/14 01:46:57;;;;;;;10.63;7.30;;;;;;;;;;5076944;28;20421;-71
2022/08/14 01:49:23;;;;;;;10.82;7.18;;;;;;;;;;5075885;28;20550;-69
2022/08/14 01:51:55;;;;;;;7.88;7.03;;;;;;;;;;5075788;28;20083;-69
2022/08/14 01:54:22;;;;;;;10.60;7.07;;;;;;;;;;5057839;28;20020;-69
2022/08/14 01:56:50;;;;;;;8.52;7.43;;;;;;;;;;5075991;28;20074;-69
2022/08/14 01:59:19;;;;;;;8.98;7.20;;;;;;;;;;5075443;28;20029;-69
2022/08/14 02:01:50;;;;;;;8.32;7.30;;;;;;;;;;5075677;28;20028;-70
2022/08/14 02:04:15;;;;;;;11.35;7.18;;;;;;;;;;5075613;28;20435;-70
2022/08/14 02:06:41;;;;;;;9.50;7.57;;;;;;;;;;5075554;28;20108;-70
2022/08/14 02:09:07;;;;;;;10.98;7.30;;;;;;;;;;5075539;28;20592;-71
2022/08/14 02:11:34;;;;;;;9.15;8.15;;;;;;;;;;5075665;28;20016;-69
2022/08/14 02:14:05;;;;;;;11.55;7.40;;;;;;;;;;5075606;28;20045;-70
2022/08/14 02:16:37;;;;;;;10.63;7.78;;;;;;;;;;5073858;28;20025;-70
2022/08/14 02:19:07;;;;;;;8.52;7.07;;;;;;;;;;5075628;28;20028;-70
2022/08/14 02:21:35;;;;;;;9.27;7.32;;;;;;;;;;5075181;28;20540;-69
2022/08/14 02:24:01;;;;;;;8.98;7.25;;;;;;;;;;5075137;28;20028;-70
2022/08/14 02:26:29;;;;;;;8.40;7.43;;;;;;;;;;5075135;28;20557;-70
2022/08/14 02:29:10;;;;;;;10.18;7.75;;;;;;;;;;5075037;28;20079;-69
2022/08/14 02:31:39;;;;;;;10.10;7.70;;;;;;;;;;5075174;28;20056;-71
2022/08/14 02:34:18;;;;;;;10.35;7.47;;;;;;;;;;5075028;28;20107;-71
2022/08/14 02:36:47;;;;;;;11.15;7.75;;;;;;;;;;5075666;28;20111;-69
2022/08/14 02:39:14;;;;;;;9.35;7.88;;;;;;;;;;5075138;28;20025;-69
2022/08/14 02:41:39;;;;;;;8.65;7.22;;;;;;;;;;5075125;28;20028;-70
2022/08/14 02:44:08;;;;;;;11.27;7.13;;;;;;;;;;5074746;28;20032;-70
2022/08/14 02:46:33;;;;;;;9.80;8.15;;;;;;;;;;5074814;28;20024;-70
2022/08/14 02:49:00;;;;;;;9.48;7.07;;;;;;;;;;5074775;28;20024;-71
2022/08/14 02:51:26;;;;;;;10.27;7.53;;;;;;;;;;5074714;28;20415;-69
2022/08/14 02:53:52;;;;;;;10.00;7.47;;;;;;;;;;5074847;28;20021;-72
2022/08/14 02:56:18;;;;;;;10.52;7.30;;;;;;;;;;5075857;28;20477;-71
2022/08/14 02:58:46;;;;;;;9.35;7.50;;;;;;;;;;5075081;28;20083;-72
2022/08/14 03:01:14;;;;;;;13.23;7.32;;;;;;;;;;5075057;28;20024;-72
2022/08/14 03:03:39;;;;;;;8.70;7.07;;;;;;;;;;5074972;28;20024;-71
2022/08/14 03:06:07;;;;;;;9.48;7.45;;;;;;;;;;5075219;28;20497;-72
2022/08/14 03:08:35;;;;;;;10.30;8.20;;;;;;;;;;5074769;28;20028;-72
2022/08/14 03:11:05;;;;;;;10.30;7.80;;;;;;;;;;5075616;28;20099;-71
2022/08/14 03:13:34;;;;;;;10.68;7.57;;;;;;;;;;5075415;28;20031;-72
2022/08/14 03:15:59;;;;;;;10.35;7.65;;;;;;;;;;5075170;28;20031;-72
2022/08/14 03:18:26;;;;;;;9.98;7.03;;;;;;;;;;5075268;28;20028;-72
2022/08/14 03:20:51;;;;;;;14.20;7.78;;;;;;;;;;5075871;28;20035;-72
2022/08/14 03:23:18;;;;;;;9.77;8.07;;;;;;;;;;5074645;28;20474;-72
2022/08/14 03:25:45;;;;;;;8.60;7.70;;;;;;;;;;5074515;28;20063;-72
2022/08/14 03:28:11;;;;;;;9.57;7.85;;;;;;;;;;5073941;28;20042;-72
2022/08/14 03:30:37;;;;;;;14.10;7.60;;;;;;;;;;5073959;28;20493;-71
2022/08/14 03:33:03;;;;;;;9.57;7.80;;;;;;;;;;5073768;28;20073;-72
2022/08/14 03:35:29;;;;;;;11.30;7.78;;;;;;;;;;5073739;28;20036;-71
2022/08/14 03:37:55;;;;;;;9.65;7.53;;;;;;;;;;5073753;28;20027;-70
2022/08/14 03:40:21;;;;;;;9.60;7.82;;;;;;;;;;5073611;28;20134;-70
2022/08/14 03:42:47;;;;;;;9.20;7.97;;;;;;;;;;5073846;28;20103;-71
2022/08/14 03:45:14;;;;;;;9.60;8.10;;;;;;;;;;5073600;28;20063;-72
2022/08/14 03:47:40;;;;;;;9.65;7.45;;;;;;;;;;5073540;28;20024;-71
2022/08/14 03:50:08;;;;;;;9.77;7.53;;;;;;;;;;5074125;28;20016;-77
2022/08/14 03:52:34;;;;;;;9.27;7.95;;;;;;;;;;5055644;28;20024;-77
2022/08/14 03:54:59;;;;;;;10.05;8.05;;;;;;;;;;5074373;28;20028;-79
2022/08/14 03:57:25;;;;;;;7.90;7.10;;;;;;;;;;5074058;28;20486;-78
2022/08/14 03:59:51;;;;;;;11.05;8.18;;;;;;;;;;5055806;28;20029;-77
2022/08/14 04:02:16;;;;;;;8.90;7.88;;;;;;;;;;5073473;28;20031;-76
2022/08/14 04:04:43;;;;;;;10.93;7.82;;;;;;;;;;5073457;28;20032;-77
2022/08/14 04:07:09;;;;;;;11.30;7.80;;;;;;;;;;5055767;28;20424;-78
2022/08/14 04:09:34;;;;;;;12.55;8.38;;;;;;;;;;5073430;28;20417;-76
2022/08/14 04:12:00;;;;;;;10.88;7.95;;;;;;;;;;5073550;28;20066;-77
2022/08/14 04:14:27;;;;;;;10.00;8.23;;;;;;;;;;5073324;28;20147;-77
2022/08/14 04:16:53;;;;;;;9.23;7.80;;;;;;;;;;5073217;28;20107;-76
2022/08/14 04:19:21;;;;;;;9.57;7.95;;;;;;;;;;5073275;28;20095;-76
2022/08/14 04:21:46;;;;;;;9.85;7.65;;;;;;;;;;5073796;28;20021;-77
2022/08/14 04:24:13;;;;;;;8.73;7.83;;;;;;;;;;5073371;28;20032;-77
2022/08/14 04:26:38;;;;;;;12.15;8.45;;;;;;;;;;5073396;28;20666;-77
2022/08/14 04:29:03;;;;;;;10.68;7.82;;;;;;;;;;5074205;28;20025;-77
2022/08/14 04:31:29;;;;;;;10.05;8.25;;;;;;;;;;5055395;28;20029;-78
2022/08/14 04:33:54;;;;;;;10.73;7.75;;;;;;;;;;5073072;28;20136;-77
2022/08/14 04:36:20;;;;;;;12.20;8.15;;;;;;;;;;5073150;28;20020;-77
2022/08/14 04:43:35;;;;;;;9.32;8.38;;;;;;;;;;5073302;28;20083;-77
2022/08/14 04:44:17;;;;;;;10.40;8.15;;;;;;;;;;5073176;28;20472;-77
2022/08/14 04:49:28;;;;;;;9.57;7.68;;;;;;;;;;5073627;28;20513;-76
2022/08/14 04:51:53;;;;;;;9.90;7.90;;;;;;;;;;5073277;28;20032;-76
2022/08/14 04:54:18;;;;;;;10.85;8.85;;;;;;;;;;5073347;28;20103;-76
2022/08/14 04:56:43;;;;;;;9.33;7.63;;;;;;;;;;5073315;28;20025;-78
2022/08/14 04:59:09;;;;;;;9.20;7.90;;;;;;;;;;5073229;28;20315;-78
2022/08/14 05:01:34;;;;;;;8.77;7.33;;;;;;;;;;5073442;28;20280;-77
2022/08/14 05:03:59;;;;;;;9.23;8.17;;;;;;;;;;5073516;28;20269;-77
2022/08/14 05:06:25;;;;;;;9.80;8.33;;;;;;;;;;5055070;28;20264;-77
2022/08/14 05:08:50;;;;;;;11.88;8.63;;;;;;;;;;5072774;28;20352;-78
2022/08/14 05:11:18;;;;;;;9.25;8.20;;;;;;;;;;5073605;28;20095;-78
2022/08/14 05:13:43;;;;;;;10.10;8.13;;;;;;;;;;5072866;28;20549;-77
2022/08/14 05:16:11;;;;;;;10.68;8.52;;;;;;;;;;5072449;28;20138;-77
2022/08/14 05:18:37;;;;;;;12.50;8.52;;;;;;;;;;5073064;28;20024;-77
2022/08/14 05:21:05;;;;;;;11.60;8.70;;;;;;;;;;5072696;28;20036;-77
2022/08/14 05:23:33;;;;;;;12.50;9.27;;;;;;;;;;5072909;28;20393;-77
2022/08/14 05:26:02;;;;;;;12.15;8.70;;;;;;;;;;5054569;28;20024;-77
2022/08/14 05:28:30;;;;;;;14.55;8.88;;;;;;;;;;5073101;28;20032;-77
2022/08/14 05:31:00;;;;;;;11.95;8.90;;;;;;;;;;5072979;28;20524;-77
2022/08/14 05:33:27;;;;;;;16.77;9.05;;;;;;;;;;5055025;28;20119;-77
2022/08/14 05:36:00;;;;;;;11.98;10.05;;;;;;;;;;5073021;28;20028;-77
2022/08/14 05:38:34;;;;;;;15.85;9.38;;;;;;;;;;5072753;28;20087;-77
2022/08/14 05:41:01;;;;;;;12.45;9.60;;;;;;;;;;5072682;28;20039;-77
2022/08/14 05:43:27;;;;;;;10.15;8.65;;;;;;;;;;5072440;28;20504;-77
2022/08/14 05:45:52;;;;;;;12.95;9.52;;;;;;;;;;5072599;28;20025;-77
2022/08/14 05:48:17;;;;;;;11.40;9.23;;;;;;;;;;5072773;28;20554;-77
2022/08/14 05:50:43;;;;;;;11.93;8.82;;;;;;;;;;5075225;28;20622;-77
2022/08/14 05:53:09;;;;;;;11.52;8.57;;;;;;;;;;5075921;28;20071;-77
2022/08/14 05:55:34;;;;;;;10.93;8.50;;;;;;;;;;5076107;28;20466;-77
2022/08/14 05:58:02;;;;;;;11.77;8.73;;;;;;;;;;5057953;28;20029;-77
2022/08/14 06:00:31;;;;;;;11.27;9.02;;;;;;;;;;5057711;28;20797;-77
2022/08/14 06:02:57;;;;;;;12.70;9.57;;;;;;;;;;5076058;28;20029;-76
2022/08/14 06:05:23;;;;;;;11.63;9.00;;;;;;;;;;5057612;28;20496;-76
2022/08/14 06:07:48;;;;;;;11.20;8.38;;;;;;;;;;5076020;28;20028;-76
2022/08/14 06:10:13;;;;;;;13.10;8.63;;;;;;;;;;5075520;28;20031;-77
2022/08/14 06:12:39;;;;;;;11.93;8.20;;;;;;;;;;5075360;28;20291;-77
2022/08/14 06:15:06;;;;;;;9.98;8.65;;;;;;;;;;5075425;28;20028;-77
2022/08/14 06:17:42;;;;;;;11.73;8.38;;;;;;;;;;5076061;28;20111;-78
2022/08/14 06:20:08;;;;;;;10.88;8.32;;;;;;;;;;5076367;28;20025;-77
2022/08/14 06:22:33;;;;;;;11.25;8.65;;;;;;;;;;5075905;28;20024;-77
2022/08/14 06:24:58;;;;;;;10.68;8.07;;;;;;;;;;5075358;28;20123;-77
2022/08/14 06:27:24;;;;;;;11.97;9.00;;;;;;;;;;5075249;28;20029;-76
2022/08/14 06:29:49;;;;;;;9.90;8.57;;;;;;;;;;5075665;28;20352;-76
2022/08/14 06:32:14;;;;;;;10.87;8.43;;;;;;;;;;5075612;28;20285;-77
2022/08/14 06:34:40;;;;;;;12.13;9.73;;;;;;;;;;5056936;28;20750;-76
2022/08/14 06:37:05;;;;;;;11.68;9.55;;;;;;;;;;5075314;28;20035;-75
2022/08/14 06:39:32;;;;;;;12.00;8.90;;;;;;;;;;5075089;28;20425;-76
2022/08/14 06:41:58;;;;;;;11.95;9.07;;;;;;;;;;5057515;28;20268;-76
2022/08/14 06:44:23;;;;;;;13.50;8.57;;;;;;;;;;5074838;28;20385;-78
2022/08/14 06:46:48;;;;;;;12.23;8.40;;;;;;;;;;5074524;28;20261;-76
2022/08/14 06:49:13;;;;;;;9.20;7.90;;;;;;;;;;5057176;28;20043;-75
2022/08/14 06:51:45;;;;;;;10.38;8.10;;;;;;;;;;5056780;28;20254;-76
2022/08/14 06:54:11;;;;;;;9.43;7.97;;;;;;;;;;5074896;28;20029;-76
2022/08/14 06:56:36;;;;;;;10.25;8.00;;;;;;;;;;5075065;28;20020;-77
2022/08/14 06:59:02;;;;;;;9.30;7.67;;;;;;;;;;5074712;28;20512;-76
2022/08/14 07:06:55;;;;;;;8.13;6.85;;;;;;;;;;5074596;28;19915;-77
2022/08/14 07:09:20;;;;;;;8.77;7.37;;;;;;;;;;5074514;28;20486;-77
2022/08/14 07:11:45;;;;;;;9.10;7.47;;;;;;;;;;5074434;28;20753;-75
2022/08/14 07:14:10;;;;;;;7.87;7.07;;;;;;;;;;5074408;28;20029;-77
2022/08/14 07:16:36;;;;;;;10.23;6.73;;;;;;;;;;5074680;28;20253;-77
2022/08/14 07:19:01;;;;;;;9.63;7.43;;;;;;;;;;5074389;28;20249;-78
2022/08/14 07:21:26;;;;;;;11.13;7.50;;;;;;;;;;5074625;28;20025;-77
2022/08/14 07:23:51;;;;;;;9.83;8.00;;;;;;;;;;5074494;28;20024;-76
2022/08/14 07:26:17;;;;;;;8.80;7.68;;;;;;;;;;5074316;28;20253;-76
2022/08/14 07:28:42;;;;;;;8.68;7.70;;;;;;;;;;5075059;28;20024;-77
2022/08/14 07:31:09;;;;;;;11.70;7.90;;;;;;;;;;5075123;28;20082;-77
2022/08/14 07:33:44;;;;;;;10.15;8.02;;;;;;;;;;5074552;28;20246;-78
2022/08/14 07:36:12;;;;;;;11.20;7.57;;;;;;;;;;5074648;28;20032;-77
2022/08/14 07:38:39;;;;;;;8.95;7.57;;;;;;;;;;5074871;28;20075;-77
2022/08/14 07:41:05;;;;;;;9.43;8.02;;;;;;;;;;5074822;28;20374;-77
2022/08/14 07:43:31;;;;;;;10.80;8.00;;;;;;;;;;5073892;28;20028;-77
2022/08/14 07:45:56;;;;;;;13.23;7.70;;;;;;;;;;5073791;28;20032;-77
2022/08/14 07:48:21;;;;;;;10.30;7.37;;;;;;;;;;5073858;28;20336;-77
2022/08/14 07:50:49;;;;;;;9.80;8.00;;;;;;;;;;5055527;28;20246;-76
2022/08/14 07:53:15;;;;;;;12.77;7.82;;;;;;;;;;5074860;28;20027;-76
2022/08/14 07:55:41;;;;;;;10.85;8.00;;;;;;;;;;5074728;28;20032;-78
2022/08/14 07:58:07;;;;;;;9.35;8.05;;;;;;;;;;5073429;28;20032;-77
2022/08/14 08:00:32;;;;;;;9.75;8.43;;;;;;;;;;5073286;28;20397;-77
2022/08/14 08:02:58;;;;;;;10.63;7.90;;;;;;;;;;5073283;28;20450;-77
2022/08/14 08:05:24;;;;;;;10.27;8.00;;;;;;;;;;5074111;28;20277;-76
2022/08/14 08:07:51;;;;;;;9.18;7.90;;;;;;;;;;5073256;28;20052;-75
2022/08/14 08:10:31;;;;;;;9.70;7.68;;;;;;;;;;5073664;28;20025;-77
2022/08/14 08:12:59;;;;;;;9.93;7.70;;;;;;;;;;5072654;28;20024;-77
2022/08/14 08:15:27;;;;;;;10.35;8.00;;;;;;;;;;5073492;28;20077;-78
2022/08/14 08:17:53;;;;;;;11.30;8.25;;;;;;;;;;5073111;28;20474;-76
2022/08/14 08:20:25;;;;;;;12.10;7.72;;;;;;;;;;5055412;28;20048;-76
2022/08/14 08:22:57;;;;;;;9.07;7.65;;;;;;;;;;5073602;28;20031;-77
2022/08/14 08:25:24;;;;;;;10.38;8.00;;;;;;;;;;5073262;28;20028;-77
2022/08/14 08:28:06;;;;;;;11.15;8.23;;;;;;;;;;5073278;28;20025;-77
2022/08/14 08:30:32;;;;;;;11.85;7.68;;;;;;;;;;5054975;28;20055;-77
2022/08/14 08:33:00;;;;;;;17.05;8.60;;;;;;;;;;5073242;28;20397;-77
2022/08/14 08:35:29;;;;;;;8.85;7.57;;;;;;;;;;5073335;28;20473;-78
2022/08/14 08:38:00;;;;;;;9.52;7.75;;;;;;;;;;5073363;28;20056;-77
2022/08/14 08:40:34;;;;;;;10.02;7.75;;;;;;;;;;5056030;28;20047;-77
2022/08/14 08:43:00;;;;;;;9.02;7.72;;;;;;;;;;5073393;28;20486;-77
2022/08/14 08:45:25;;;;;;;9.77;7.30;;;;;;;;;;5073215;28;20041;-76
2022/08/14 08:47:51;;;;;;;10.07;7.80;;;;;;;;;;5073085;28;20471;-77
2022/08/14 08:50:29;;;;;;;15.32;7.35;;;;;;;;;;5073049;28;20074;-77
2022/08/14 08:52:56;;;;;;;10.13;7.40;;;;;;;;;;5073054;28;20099;-77
2022/08/14 08:55:28;;;;;;;8.48;7.18;;;;;;;;;;5054921;28;20033;-77
2022/08/14 08:58:05;;;;;;;14.07;8.05;;;;;;;;;;5072561;28;20059;-77
2022/08/14 09:00:35;;;;;;;7.85;6.78;;;;;;;;;;5072668;28;20032;-76
2022/08/14 09:03:10;;;;;;;11.77;7.38;;;;;;;;;;5072581;28;20067;-77
2022/08/14 09:05:38;;;;;;;10.18;7.25;;;;;;;;;;5073055;28;20031;-76
2022/08/14 09:08:24;;;;;;;8.20;7.10;;;;;;;;;;5054525;28;20036;-76
2022/08/14 09:10:50;;;;;;;8.60;6.95;;;;;;;;;;5072499;28;20470;-76
2022/08/14 09:13:17;;;;;;;10.82;6.82;;;;;;;;;;5072630;28;20446;-75
2022/08/14 09:15:45;;;;;;;7.43;6.65;;;;;;;;;;5072651;28;20032;-77
2022/08/14 09:18:12;;;;;;;9.23;6.85;;;;;;;;;;5073386;28;20381;-75
2022/08/14 09:20:39;;;;;;;10.88;6.60;;;;;;;;;;5072922;28;20107;-76
2022/08/14 09:23:07;;;;;;;9.15;6.95;;;;;;;;;;5072730;28;20025;-76
2022/08/14 09:25:32;;;;;;;7.72;6.70;;;;;;;;;;5074792;28;20029;-77
2022/08/14 09:27:58;;;;;;;9.18;6.80;;;;;;;;;;5076027;28;20498;-76
2022/08/14 09:30:23;;;;;;;9.23;6.22;;;;;;;;;;5059097;28;20021;-76
2022/08/14 09:33:01;;;;;;;10.68;6.40;;;;;;;;;;5076528;28;20029;-76
2022/08/14 09:35:45;;;;;;;7.82;6.22;;;;;;;;;;5075919;28;20390;-80
2022/08/14 09:38:56;;;;;;;8.63;6.47;;;;;;;;;;5058057;28;20078;-77
2022/08/14 09:41:46;;;;;;;7.90;6.15;;;;;;;;;;5071274;28;20409;-77
2022/08/14 09:44:28;;;;;;;8.23;5.40;;;;;;;;;;5058606;28;20169;-77
2022/08/14 09:46:57;;;;;;;6.90;5.20;;;;;;;;;;5058491;28;20022;-77
2022/08/14 09:49:30;;;;;;;6.40;4.90;;;;;;;;;;5076108;28;20036;-75
2022/08/14 09:52:03;;;;;;;;;;;;;;;;;;5058530;28;20020;-77
2022/08/14 09:54:38;;;;;;;6.53;4.18;;;;;;;;;;5075861;28;19912;-77
2022/08/14 09:57:05;;;;;;;6.70;3.97;;;;;;;;;;5076671;28;20069;-77
2022/08/14 09:59:46;;;;;;;5.15;3.97;;;;;;;;;;5076910;28;20016;-77
2022/08/14 10:02:21;;;;;;;4.90;4.40;;;;;;;;;;5076185;28;20028;-78
2022/08/14 10:05:05;;;;;;;5.82;4.00;;;;;;;;;;5076045;28;20024;-77
2022/08/14 10:07:33;;;;;;;6.68;4.35;;;;;;;;;;5077054;28;20024;-78
2022/08/14 10:09:59;;;;;;;5.47;4.20;;;;;;;;;;5078707;28;20101;-77
2022/08/14 10:12:26;;;;;;;5.50;4.45;;;;;;;;;;5079818;28;20025;-78
2022/08/14 10:14:51;;;;;;;7.07;4.18;;;;;;;;;;5061377;28;20103;-77
2022/08/14 10:17:25;;;;;;;7.47;4.43;;;;;;;;;;5077408;28;20059;-78
2022/08/14 10:19:51;;;;;;;4.85;3.80;;;;;;;;;;5060226;28;20280;-78
2022/08/14 10:22:27;;;;;;;5.65;4.03;;;;;;;;;;5076177;28;20020;-77
2022/08/14 10:24:53;;;;;;;6.97;3.90;;;;;;;;;;5078113;28;20078;-77
2022/08/14 10:27:24;;;;;;;6.93;3.53;;;;;;;;;;5076534;28;20020;-78
2022/08/14 10:29:52;;;;;;;5.20;3.70;;;;;;;;;;5078001;28;20547;-78
2022/08/14 10:32:17;;;;;;;4.55;3.67;;;;;;;;;;5077019;28;20036;-77
2022/08/14 10:34:45;;;;;;;5.25;3.50;;;;;;;;;;5058722;28;20067;-78
2022/08/14 10:37:12;;;;;;;4.90;3.63;;;;;;;;;;5076333;28;20035;-79
2022/08/14 10:39:39;;;;;;;9.93;3.70;;;;;;;;;;5076183;28;20025;-77
2022/08/14 10:42:07;;;;;;;7.95;3.67;;;;;;;;;;5077346;28;20028;-78
2022/08/14 10:44:35;;;;;;;5.93;3.80;;;;;;;;;;5058961;28;20035;-78
2022/08/14 10:47:04;;;;;;;5.25;3.50;;;;;;;;;;5077155;28;20021;-77
2022/08/14 10:49:30;;;;;;;5.10;3.50;;;;;;;;;;5057977;28;20468;-76
2022/08/14 10:52:05;;;;;;;5.53;4.00;;;;;;;;;;5077663;28;20028;-78
2022/08/14 10:54:41;;;;;;;4.53;3.47;;;;;;;;;;5077535;28;20082;-77
2022/08/14 10:57:14;;;;;;;6.90;3.22;;;;;;;;;;5060454;28;20021;-76
2022/08/14 10:59:44;;;;;;;8.35;3.53;;;;;;;;;;5077281;28;20039;-75
2022/08/14 11:02:23;;;;;;;7.65;3.67;;;;;;;;;;5079379;28;20385;-79
2022/08/14 11:05:13;;;;;;;5.25;3.50;;;;;;;;;;5079618;28;20393;-78
2022/08/14 11:07:41;;;;;;;6.72;3.47;;;;;;;;;;5077000;28;20028;-78
2022/08/14 11:10:13;;;;;;;4.90;3.30;;;;;;;;;;5075473;28;20470;-77
2022/08/14 11:12:46;;;;;;;4.68;3.47;;;;;;;;;;5075558;28;20052;-78
2022/08/14 11:15:18;;;;;;;5.68;3.17;;;;;;;;;;5076597;28;20016;-78
2022/08/14 11:17:46;;;;;;;4.90;3.15;;;;;;;;;;5059195;28;20029;-79
2022/08/14 11:20:12;;;;;;;3.67;2.97;;;;;;;;;;5078956;28;20055;-77
2022/08/14 11:22:40;;;;;;;4.65;3.60;;;;;;;;;;5077565;28;20028;-78
2022/08/14 11:25:08;;;;;;;4.38;3.47;;;;;;;;;;5078052;28;20023;-78
2022/08/14 11:27:33;;;;;;;7.97;3.47;;;;;;;;;;5077379;28;20024;-78
2022/08/14 11:30:05;;;;;;;9.02;3.50;;;;;;;;;;5078235;28;20123;-78
2022/08/14 11:32:31;;;;;;;4.80;3.47;;;;;;;;;;5076964;28;20024;-76
2022/08/14 11:34:58;;;;;;;6.60;3.78;;;;;;;;;;5075541;28;20058;-80
2022/08/14 11:37:23;;;;;;;5.78;3.65;;;;;;;;;;5077424;28;20074;-78
2022/08/14 11:39:49;;;;;;;4.75;3.80;;;;;;;;;;5076821;28;20028;-78
2022/08/14 11:42:23;;;;;;;5.57;3.70;;;;;;;;;;5075944;28;20025;-78
2022/08/14 11:44:49;;;;;;;7.05;3.58;;;;;;;;;;5076251;28;20528;-78
2022/08/14 11:47:18;;;;;;;4.80;3.38;;;;;;;;;;5076576;28;20089;-77
2022/08/14 11:49:47;;;;;;;5.30;3.28;;;;;;;;;;5058786;28;20020;-79
2022/08/14 11:52:16;;;;;;;3.80;3.30;;;;;;;;;;5076604;28;20020;-78
2022/08/14 11:54:43;;;;;;;9.55;3.70;;;;;;;;;;5075673;28;20386;-76
2022/08/14 11:57:16;;;;;;;6.63;3.40;;;;;;;;;;5058417;28;20371;-78
2022/08/14 11:59:41;;;;;;;4.93;3.58;;;;;;;;;;5057397;28;20059;-77
2022/08/14 12:02:16;;;;;;;21.42;5.22;;;;;;;;;;5075970;28;20040;-77
2022/08/14 12:04:49;;;;;;;5.85;4.45;;;;;;;;;;5057205;28;20060;-78
2022/08/14 12:07:15;;;;;;;6.47;3.97;;;;;;;;;;5074251;28;20470;-78
2022/08/14 12:09:40;;;;;;;6.65;4.00;;;;;;;;;;5075271;28;20028;-78
2022/08/14 12:12:20;;;;;;;8.30;4.78;;;;;;;;;;5074406;28;20028;-78
2022/08/14 12:14:55;;;;;;;5.32;4.22;;;;;;;;;;5056031;28;20486;-77
2022/08/14 12:17:23;;;;;;;8.38;3.97;;;;;;;;;;5077015;28;20492;-78
2022/08/14 12:19:51;;;;;;;7.28;4.93;;;;;;;;;;5076901;28;20043;-78
2022/08/14 12:22:17;;;;;;;7.78;4.13;;;;;;;;;;5077252;28;20031;-78
2022/08/14 12:24:43;;;;;;;5.28;3.90;;;;;;;;;;5077831;28;20103;-78
2022/08/14 12:27:09;;;;;;;6.35;4.32;;;;;;;;;;5059189;28;20102;-78
2022/08/14 12:29:34;;;;;;;9.10;4.78;;;;;;;;;;5075989;28;20473;-78
2022/08/14 12:32:05;;;;;;;7.83;4.60;;;;;;;;;;5077266;28;20025;-78
2022/08/14 12:34:33;;;;;;;5.18;4.20;;;;;;;;;;5078028;28;20757;-77
2022/08/14 12:37:06;;;;;;;8.48;4.55;;;;;;;;;;5076474;28;20531;-78
2022/08/14 12:39:32;;;;;;;7.45;4.47;;;;;;;;;;5060000;28;20024;-78
2022/08/14 12:42:07;;;;;;;9.25;4.68;;;;;;;;;;5074975;28;20062;-77
2022/08/14 12:44:36;;;;;;;11.80;3.97;;;;;;;;;;5077288;28;20029;-77
2022/08/14 12:47:08;;;;;;;4.75;3.95;;;;;;;;;;5074956;28;20103;-77
2022/08/14 12:49:34;;;;;;;5.03;4.25;;;;;;;;;;5075327;28;20021;-78
2022/08/14 12:52:01;;;;;;;5.63;3.97;;;;;;;;;;5077363;28;20024;-77
2022/08/14 12:54:28;;;;;;;8.55;4.30;;;;;;;;;;5076382;28;20021;-77
2022/08/14 12:57:14;;;;;;;7.25;3.90;;;;;;;;;;5056632;28;20036;-77
2022/08/14 12:59:39;;;;;;;9.75;4.38;;;;;;;;;;5076883;28;20036;-76
2022/08/14 13:02:05;;;;;;;6.07;4.20;;;;;;;;;;5080554;28;20036;-77
2022/08/14 13:04:30;;;;;;;5.63;4.20;;;;;;;;;;5079886;28;20736;-77
2022/08/14 13:07:07;;;;;;;4.82;3.95;;;;;;;;;;5079227;28;20021;-77
2022/08/14 13:09:32;;;;;;;5.72;4.55;;;;;;;;;;5079649;28;20028;-77
2022/08/14 13:12:02;;;;;;;9.65;4.47;;;;;;;;;;5079179;28;20035;-77
2022/08/14 13:14:29;;;;;;;6.57;4.45;;;;;;;;;;5078130;28;20107;-77
2022/08/14 13:16:56;;;;;;;7.82;4.65;;;;;;;;;;5079859;28;20075;-77
2022/08/14 13:19:23;;;;;;;9.88;4.88;;;;;;;;;;5079850;28;20024;-77
2022/08/14 13:21:51;;;;;;;4.95;4.45;;;;;;;;;;5079260;28;20048;-78
2022/08/14 13:24:18;;;;;;;9.25;4.80;;;;;;;;;;5078475;28;20035;-78
2022/08/14 13:26:50;;;;;;;6.15;4.72;;;;;;;;;;5078744;28;20115;-77
2022/08/14 13:29:20;;;;;;;6.55;4.55;;;;;;;;;;5079073;28;20107;-78
2022/08/14 13:31:50;;;;;;;8.10;4.80;;;;;;;;;;5079109;28;20047;-77
2022/08/14 13:34:18;;;;;;;5.35;4.70;;;;;;;;;;5078611;28;20094;-77
2022/08/14 13:36:44;;;;;;;8.98;4.68;;;;;;;;;;5079209;28;20397;-77
2022/08/14 13:39:13;;;;;;;5.05;4.50;;;;;;;;;;5079145;28;20031;-77
2022/08/14 13:41:39;;;;;;;5.60;4.35;;;;;;;;;;5078619;28;20039;-76
2022/08/14 13:44:04;;;;;;;6.13;4.43;;;;;;;;;;5082114;28;20025;-77
2022/08/14 13:46:30;;;;;;;7.53;5.03;;;;;;;;;;5060555;28;20016;-76
2022/08/14 13:48:55;;;;;;;4.82;4.28;;;;;;;;;;5060356;28;20047;-77
2022/08/14 13:51:24;;;;;;;9.35;4.70;;;;;;;;;;5060197;28;20017;-78
2022/08/14 13:53:54;;;;;;;6.72;4.30;;;;;;;;;;5061684;28;20028;-78
2022/08/14 13:56:21;;;;;;;10.02;4.45;;;;;;;;;;5079158;28;20060;-77
2022/08/14 13:58:48;;;;;;;5.50;4.40;;;;;;;;;;5078418;28;20024;-78
2022/08/14 14:01:14;;;;;;;8.68;4.50;;;;;;;;;;5061321;28;20028;-78
2022/08/14 14:03:45;;;;;;;5.30;4.20;;;;;;;;;;5078363;28;20470;-77
2022/08/14 14:06:13;;;;;;;5.55;4.30;;;;;;;;;;5079436;28;20029;-79
2022/08/14 14:08:44;;;;;;;9.43;4.35;;;;;;;;;;5078309;28;20034;-78
2022/08/14 14:11:12;;;;;;;5.22;3.97;;;;;;;;;;5061058;28;20470;-77
2022/08/14 14:13:38;;;;;;;7.22;4.68;;;;;;;;;;5077460;28;20444;-77
2022/08/14 14:16:05;;;;;;;6.60;4.40;;;;;;;;;;5059938;28;20108;-77
2022/08/14 14:18:30;;;;;;;15.00;4.45;;;;;;;;;;5077436;28;20021;-79
2022/08/14 14:20:56;;;;;;;14.13;5.72;;;;;;;;;;5077814;28;20090;-77
2022/08/14 14:23:22;;;;;;;6.80;5.57;;;;;;;;;;5077236;28;20379;-78
2022/08/14 14:25:47;;;;;;;15.93;5.10;;;;;;;;;;5076741;28;20078;-78
2022/08/14 14:28:15;;;;;;;13.13;5.07;;;;;;;;;;5077518;28;20142;-78
2022/08/14 14:30:44;;;;;;;8.10;4.93;;;;;;;;;;5077797;28;20486;-78
2022/08/14 14:33:12;;;;;;;10.52;4.97;;;;;;;;;;5076502;28;20036;-77
2022/08/14 14:35:42;;;;;;;8.90;4.97;;;;;;;;;;5077071;28;20024;-78
2022/08/14 14:38:11;;;;;;;9.38;4.75;;;;;;;;;;5076240;28;20047;-78
2022/08/14 14:40:37;;;;;;;11.30;5.10;;;;;;;;;;5076106;28;20385;-76
2022/08/14 14:43:09;;;;;;;6.43;4.88;;;;;;;;;;5076564;28;20019;-76
2022/08/14 14:45:36;;;;;;;9.60;4.45;;;;;;;;;;5075955;28;20055;-76
2022/08/14 14:48:05;;;;;;;7.35;4.45;;;;;;;;;;5075708;28;20430;-77
2022/08/14 14:50:31;;;;;;;7.72;4.32;;;;;;;;;;5075012;28;20477;-78
2022/08/14 14:52:57;;;;;;;8.98;4.72;;;;;;;;;;5075649;28;20036;-77
2022/08/14 14:55:22;;;;;;;12.55;5.05;;;;;;;;;;5075241;28;20074;-77
2022/08/14 14:57:47;;;;;;;7.47;4.40;;;;;;;;;;5076009;28;20028;-78